createdAt,value
2022-08-30T00:00:38.263Z,7.48
2022-08-30T00:01:41.894Z,7.22
2022-08-30T00:02:45.307Z,7.03
2022-08-30T00:03:48.540Z,6.95
2022-08-30T00:04:53.650Z,7.81
2022-08-30T00:05:56.771Z,7.71
2022-08-30T00:07:02.085Z,8.45
2022-08-30T00:08:05.214Z,7.93
2022-08-30T00:09:08.617Z,7.71
2022-08-30T00:10:12.352Z,7.64
2022-08-30T00:11:18.963Z,7.73
2022-08-30T00:12:22.156Z,7.66
2022-08-30T00:13:25.439Z,7.62
2022-08-30T00:14:28.679Z,7.34
2022-08-30T00:15:31.883Z,7.08
2022-08-30T00:16:35.648Z,7.25
2022-08-30T00:17:39.190Z,7.19
2022-08-30T00:18:42.775Z,7.64
2022-08-30T00:19:46.896Z,7.31
2022-08-30T00:20:51.054Z,6.53
2022-08-30T00:21:55.545Z,7.39
2022-08-30T00:22:58.409Z,6.77
2022-08-30T00:24:01.666Z,7.44
2022-08-30T00:25:05.654Z,7.49
2022-08-30T00:26:09.057Z,6.84
2022-08-30T00:27:12.051Z,6.48
2022-08-30T00:28:16.364Z,7.56
2022-08-30T00:29:20.034Z,6.76
2022-08-30T00:30:23.570Z,6.61
2022-08-30T00:31:26.735Z,6.73
2022-08-30T00:32:30.662Z,7.22
2022-08-30T00:33:33.933Z,7.30
2022-08-30T00:34:37.021Z,7.81
2022-08-30T00:35:41.022Z,8.21
2022-08-30T00:36:45.211Z,7.51
2022-08-30T00:37:48.515Z,8.00
2022-08-30T00:38:51.547Z,6.53
2022-08-30T00:39:54.622Z,7.08
2022-08-30T00:40:59.233Z,7.43
2022-08-30T00:42:02.440Z,8.36
2022-08-30T00:43:09.585Z,7.26
2022-08-30T00:44:14.620Z,7.63
2022-08-30T00:45:23.986Z,6.92
2022-08-30T00:46:28.104Z,7.61
2022-08-30T00:47:31.349Z,6.46
2022-08-30T00:48:38.021Z,7.62
2022-08-30T00:49:49.468Z,6.71
2022-08-30T00:50:56.215Z,7.95
2022-08-30T00:52:01.953Z,7.47
2022-08-30T00:53:08.612Z,7.51
2022-08-30T00:54:12.207Z,6.58
2022-08-30T00:55:17.552Z,7.22
2022-08-30T00:56:22.851Z,7.33
2022-08-30T00:57:26.106Z,6.70
2022-08-30T00:58:32.582Z,6.46
2022-08-30T00:59:36.070Z,7.27
2022-08-30T01:00:39.786Z,6.97
2022-08-30T01:01:42.937Z,6.81
2022-08-30T01:02:46.340Z,6.91
2022-08-30T01:03:52.874Z,7.54
2022-08-30T01:04:57.210Z,7.96
2022-08-30T01:06:00.933Z,8.01
2022-08-30T01:07:04.069Z,6.24
2022-08-30T01:08:07.461Z,7.66
2022-08-30T01:09:10.669Z,7.01
2022-08-30T01:10:15.150Z,7.33
2022-08-30T01:11:21.646Z,8.20
2022-08-30T01:12:24.820Z,6.69
2022-08-30T01:13:28.020Z,7.35
2022-08-30T01:14:33.592Z,6.38
2022-08-30T01:15:38.275Z,7.19
2022-08-30T01:16:43.368Z,6.87
2022-08-30T01:17:47.543Z,6.92
2022-08-30T01:18:55.468Z,7.00
2022-08-30T01:20:07.956Z,8.08
2022-08-30T01:21:23.464Z,7.96
2022-08-30T01:22:36.333Z,7.67
2022-08-30T01:23:42.942Z,8.03
2022-08-30T01:24:50.275Z,8.27
2022-08-30T01:25:54.765Z,7.74
2022-08-30T01:26:58.500Z,8.09
2022-08-30T01:28:05.218Z,7.44
2022-08-30T01:29:11.923Z,7.13
2022-08-30T01:30:15.344Z,7.27
2022-08-30T01:31:19.132Z,7.86
2022-08-30T01:32:29.026Z,7.72
2022-08-30T01:33:31.418Z,7.72
2022-08-30T01:34:34.965Z,8.46
2022-08-30T01:35:44.545Z,7.50
2022-08-30T01:36:48.877Z,8.41
2022-08-30T01:37:52.140Z,7.72
2022-08-30T01:38:57.172Z,8.39
2022-08-30T01:40:00.473Z,8.39
2022-08-30T01:41:13.309Z,8.30
2022-08-30T01:42:17.657Z,7.66
2022-08-30T01:43:20.888Z,7.56
2022-08-30T01:44:24.007Z,8.27
2022-08-30T01:45:27.260Z,8.22
2022-08-30T01:46:35.496Z,8.19
2022-08-30T01:47:39.840Z,8.41
2022-08-30T01:48:47.348Z,9.17
2022-08-30T01:49:48.916Z,9.48
2022-08-30T01:50:52.547Z,8.98
2022-08-30T01:52:01.095Z,8.88
2022-08-30T01:53:01.398Z,9.46
2022-08-30T01:54:05.085Z,8.74
2022-08-30T01:55:09.068Z,9.48
2022-08-30T01:56:13.873Z,10.12
2022-08-30T01:57:20.589Z,10.16
2022-08-30T01:58:23.894Z,10.24
2022-08-30T01:59:27.065Z,10.85
2022-08-30T02:00:31.763Z,10.56
2022-08-30T02:01:38.682Z,10.06
2022-08-30T02:02:43.235Z,10.42
2022-08-30T02:03:47.874Z,10.59
2022-08-30T02:04:53.020Z,10.59
2022-08-30T02:05:56.535Z,10.48
2022-08-30T02:06:59.895Z,9.99
2022-08-30T02:08:03.670Z,10.97
2022-08-30T02:09:07.130Z,11.29
2022-08-30T02:10:10.646Z,10.21
2022-08-30T02:11:14.839Z,9.64
2022-08-30T02:12:18.491Z,9.80
2022-08-30T02:13:21.512Z,9.68
2022-08-30T02:14:25.026Z,10.31
2022-08-30T02:15:28.147Z,8.88
2022-08-30T02:16:31.901Z,9.06
2022-08-30T02:17:35.130Z,9.09
2022-08-30T02:18:39.461Z,9.79
2022-08-30T02:19:43.122Z,9.97
2022-08-30T02:20:46.488Z,9.60
2022-08-30T02:21:50.161Z,9.71
2022-08-30T02:22:53.280Z,9.21
2022-08-30T02:23:56.426Z,9.65
2022-08-30T02:25:00.445Z,9.72
2022-08-30T02:26:04.677Z,9.89
2022-08-30T02:27:07.701Z,9.80
2022-08-30T02:28:10.990Z,11.06
2022-08-30T02:29:16.169Z,9.52
2022-08-30T02:30:20.502Z,9.63
2022-08-30T02:31:23.705Z,8.85
2022-08-30T02:32:27.215Z,9.67
2022-08-30T02:33:31.331Z,11.16
2022-08-30T02:34:34.438Z,12.18
2022-08-30T02:35:37.526Z,12.29
2022-08-30T02:36:41.490Z,11.63
2022-08-30T02:37:44.622Z,10.01
2022-08-30T02:38:49.008Z,11.09
2022-08-30T02:39:52.143Z,11.22
2022-08-30T02:40:55.685Z,10.02
2022-08-30T02:41:58.919Z,10.15
2022-08-30T02:43:02.068Z,9.88
2022-08-30T02:44:06.613Z,10.28
2022-08-30T02:45:10.524Z,9.88
2022-08-30T02:46:14.537Z,10.35
2022-08-30T02:47:17.855Z,9.54
2022-08-30T02:48:20.971Z,9.13
2022-08-30T02:49:33.073Z,11.04
2022-08-30T02:50:30.717Z,9.66
2022-08-30T02:51:33.793Z,9.74
2022-08-30T02:52:37.449Z,10.34
2022-08-30T02:53:42.227Z,10.29
2022-08-30T02:54:45.706Z,11.25
2022-08-30T02:55:50.741Z,12.42
2022-08-30T02:56:54.198Z,11.47
2022-08-30T02:57:57.228Z,11.97
2022-08-30T02:59:00.516Z,12.07
2022-08-30T03:00:09.543Z,11.36
2022-08-30T03:01:15.479Z,10.77
2022-08-30T03:02:19.655Z,10.52
2022-08-30T03:03:23.169Z,9.89
2022-08-30T03:04:26.799Z,9.28
2022-08-30T03:05:32.428Z,10.44
2022-08-30T03:06:36.139Z,11.12
2022-08-30T03:07:41.048Z,11.57
2022-08-30T03:08:44.387Z,10.72
2022-08-30T03:09:47.644Z,11.48
2022-08-30T03:10:51.001Z,11.49
2022-08-30T03:11:54.124Z,10.28
2022-08-30T03:12:57.612Z,9.85
2022-08-30T03:14:00.746Z,9.01
2022-08-30T03:15:06.213Z,8.52
2022-08-30T03:16:09.468Z,8.02
2022-08-30T03:17:15.544Z,8.61
2022-08-30T03:18:18.792Z,8.18
2022-08-30T03:19:22.004Z,8.62
2022-08-30T03:20:26.125Z,8.60
2022-08-30T03:21:29.227Z,8.60
2022-08-30T03:22:32.367Z,8.16
2022-08-30T03:23:35.766Z,8.47
2022-08-30T03:24:38.935Z,9.30
2022-08-30T03:25:42.065Z,8.93
2022-08-30T03:26:46.776Z,9.58
2022-08-30T03:27:50.546Z,9.54
2022-08-30T03:28:53.773Z,10.01
2022-08-30T03:29:57.029Z,9.81
2022-08-30T03:31:00.633Z,9.94
2022-08-30T03:32:04.037Z,9.33
2022-08-30T03:33:07.208Z,9.64
2022-08-30T03:34:10.495Z,10.06
2022-08-30T03:35:14.473Z,9.01
2022-08-30T03:36:19.622Z,9.17
2022-08-30T03:37:27.259Z,10.03
2022-08-30T03:38:27.696Z,9.03
2022-08-30T03:39:31.369Z,9.73
2022-08-30T03:40:36.696Z,9.78
2022-08-30T03:41:41.276Z,9.01
2022-08-30T03:42:45.096Z,9.05
2022-08-30T03:43:48.186Z,9.49
2022-08-30T03:44:51.381Z,9.76
2022-08-30T03:45:54.544Z,10.28
2022-08-30T03:46:57.654Z,8.80
2022-08-30T03:48:02.055Z,9.14
2022-08-30T03:49:08.225Z,9.94
2022-08-30T03:50:14.211Z,10.18
2022-08-30T03:51:17.817Z,9.74
2022-08-30T03:52:20.941Z,9.33
2022-08-30T03:53:25.810Z,9.58
2022-08-30T03:54:30.928Z,10.16
2022-08-30T03:55:34.159Z,10.03
2022-08-30T03:56:37.719Z,10.65
2022-08-30T03:57:43.546Z,10.94
2022-08-30T03:58:46.806Z,10.92
2022-08-30T03:59:49.910Z,10.58
2022-08-30T04:00:53.365Z,12.07
2022-08-30T04:01:58.401Z,19.82
2022-08-30T04:03:01.566Z,18.58
2022-08-30T04:04:04.795Z,18.61
2022-08-30T04:05:09.791Z,16.36
2022-08-30T04:06:13.656Z,17.77
2022-08-30T04:07:18.701Z,16.29
2022-08-30T04:08:22.866Z,14.32
2022-08-30T04:09:26.154Z,13.96
2022-08-30T04:10:29.957Z,13.34
2022-08-30T04:11:33.495Z,14.63
2022-08-30T04:12:38.712Z,12.74
2022-08-30T04:13:43.210Z,12.77
2022-08-30T04:14:46.300Z,12.56
2022-08-30T04:15:50.033Z,11.44
2022-08-30T04:16:53.424Z,11.94
2022-08-30T04:17:56.812Z,11.15
2022-08-30T04:19:00.021Z,10.63
2022-08-30T04:20:03.878Z,11.23
2022-08-30T04:21:09.485Z,10.38
2022-08-30T04:22:12.389Z,11.26
2022-08-30T04:23:16.117Z,11.07
2022-08-30T04:24:19.488Z,12.25
2022-08-30T04:25:22.794Z,12.11
2022-08-30T04:26:29.234Z,11.73
2022-08-30T04:27:31.892Z,12.81
2022-08-30T04:28:35.528Z,11.78
2022-08-30T04:29:38.897Z,13.53
2022-08-30T04:30:44.366Z,13.67
2022-08-30T04:31:47.537Z,14.71
2022-08-30T04:32:52.044Z,16.26
2022-08-30T04:33:55.801Z,18.12
2022-08-30T04:34:59.713Z,19.20
2022-08-30T04:36:05.287Z,19.35
2022-08-30T04:37:09.908Z,18.68
2022-08-30T04:38:13.923Z,16.80
2022-08-30T04:39:20.163Z,16.78
2022-08-30T04:40:24.837Z,15.47
2022-08-30T04:41:27.913Z,17.35
2022-08-30T04:42:33.669Z,16.74
2022-08-30T04:43:36.690Z,16.82
2022-08-30T04:44:39.884Z,15.51
2022-08-30T04:45:43.018Z,15.19
2022-08-30T04:46:46.336Z,16.28
2022-08-30T04:47:49.651Z,16.23
2022-08-30T04:48:52.890Z,16.92
2022-08-30T04:49:56.170Z,17.41
2022-08-30T04:50:59.321Z,16.91
2022-08-30T04:52:02.801Z,14.96
2022-08-30T04:53:05.986Z,15.72
2022-08-30T04:54:09.127Z,15.72
2022-08-30T04:55:17.998Z,15.14
2022-08-30T04:56:24.676Z,14.04
2022-08-30T04:57:28.096Z,15.19
2022-08-30T04:58:31.256Z,14.54
2022-08-30T04:59:34.360Z,15.84
2022-08-30T05:00:37.671Z,16.58
2022-08-30T05:01:45.380Z,16.06
2022-08-30T05:02:46.463Z,17.13
2022-08-30T05:03:50.929Z,16.23
2022-08-30T05:05:12.507Z,15.75
2022-08-30T05:06:19.937Z,15.78
2022-08-30T05:07:23.091Z,16.55
2022-08-30T05:08:26.203Z,17.17
2022-08-30T05:09:29.309Z,17.44
2022-08-30T05:10:33.658Z,18.73
2022-08-30T05:11:37.647Z,18.42
2022-08-30T05:12:42.739Z,17.86
2022-08-30T05:13:46.238Z,16.83
2022-08-30T05:14:49.939Z,17.37
2022-08-30T05:15:54.192Z,17.99
2022-08-30T05:16:57.489Z,17.44
2022-08-30T05:18:00.579Z,17.56
2022-08-30T05:19:03.753Z,17.87
2022-08-30T05:20:09.467Z,17.66
2022-08-30T05:21:15.868Z,18.26
2022-08-30T05:22:19.175Z,18.94
2022-08-30T05:23:22.290Z,20.02
2022-08-30T05:24:25.671Z,19.41
2022-08-30T05:25:32.069Z,20.46
2022-08-30T05:26:38.112Z,19.54
2022-08-30T05:27:41.281Z,19.75
2022-08-30T05:28:44.932Z,19.56
2022-08-30T05:29:49.273Z,19.39
2022-08-30T05:30:52.515Z,19.36
2022-08-30T05:31:55.699Z,18.69
2022-08-30T05:32:58.946Z,18.44
2022-08-30T05:34:03.180Z,17.09
2022-08-30T05:35:07.571Z,18.74
2022-08-30T05:36:12.403Z,16.28
2022-08-30T05:37:15.649Z,16.23
2022-08-30T05:38:18.833Z,17.26
2022-08-30T05:39:21.980Z,16.01
2022-08-30T05:40:26.605Z,15.81
2022-08-30T05:41:32.339Z,13.93
2022-08-30T05:42:36.440Z,15.06
2022-08-30T05:43:39.940Z,15.48
2022-08-30T05:44:44.359Z,15.18
2022-08-30T05:45:47.569Z,14.96
2022-08-30T05:46:50.799Z,15.46
2022-08-30T05:47:53.873Z,14.40
2022-08-30T05:48:57.105Z,16.23
2022-08-30T05:50:00.319Z,14.26
2022-08-30T05:51:06.956Z,15.53
2022-08-30T05:52:10.118Z,15.36
2022-08-30T05:53:13.233Z,14.64
2022-08-30T05:54:17.178Z,14.79
2022-08-30T05:55:20.371Z,15.94
2022-08-30T05:56:26.568Z,15.17
2022-08-30T05:57:33.405Z,15.94
2022-08-30T05:58:39.793Z,15.84
2022-08-30T05:59:43.313Z,14.49
2022-08-30T06:00:47.135Z,16.42
2022-08-30T06:01:50.534Z,15.58
2022-08-30T06:02:54.305Z,15.68
2022-08-30T06:04:03.706Z,15.36
2022-08-30T06:05:05.508Z,15.79
2022-08-30T06:06:09.514Z,16.68
2022-08-30T06:07:14.925Z,15.62
2022-08-30T06:08:18.333Z,16.43
2022-08-30T06:09:21.711Z,17.05
2022-08-30T06:10:25.285Z,16.49
2022-08-30T06:11:28.427Z,16.18
2022-08-30T06:12:31.708Z,16.17
2022-08-30T06:13:35.228Z,16.52
2022-08-30T06:14:38.931Z,16.46
2022-08-30T06:15:46.567Z,16.39
2022-08-30T06:16:51.312Z,18.46
2022-08-30T06:17:54.495Z,18.19
2022-08-30T06:18:59.637Z,19.73
2022-08-30T06:20:03.145Z,18.35
2022-08-30T06:21:06.743Z,20.42
2022-08-30T06:22:09.916Z,19.23
2022-08-30T06:23:13.641Z,20.45
2022-08-30T06:24:17.095Z,20.59
2022-08-30T06:25:20.835Z,19.23
2022-08-30T06:26:25.163Z,20.59
2022-08-30T06:27:28.351Z,20.09
2022-08-30T06:28:31.896Z,19.32
2022-08-30T06:29:35.076Z,19.52
2022-08-30T06:30:42.444Z,18.79
2022-08-30T06:31:45.732Z,19.41
2022-08-30T06:32:48.874Z,19.45
2022-08-30T06:33:52.588Z,19.06
2022-08-30T06:34:55.680Z,21.07
2022-08-30T06:36:05.946Z,20.93
2022-08-30T06:37:09.633Z,19.80
2022-08-30T06:38:12.798Z,19.31
2022-08-30T06:39:16.072Z,19.76
2022-08-30T06:40:21.160Z,18.39
2022-08-30T06:41:27.495Z,19.53
2022-08-30T06:42:32.514Z,19.08
2022-08-30T06:43:35.886Z,20.05
2022-08-30T06:44:39.008Z,19.23
2022-08-30T06:45:42.153Z,18.47
2022-08-30T06:46:45.575Z,19.70
2022-08-30T06:47:48.909Z,20.04
2022-08-30T06:48:53.062Z,20.18
2022-08-30T06:49:58.819Z,19.73
2022-08-30T06:51:01.996Z,19.98
2022-08-30T06:52:06.072Z,18.26
2022-08-30T06:53:09.437Z,17.84
2022-08-30T06:54:12.947Z,18.12
2022-08-30T06:55:17.146Z,18.35
2022-08-30T06:56:22.132Z,18.32
2022-08-30T06:57:26.427Z,17.86
2022-08-30T06:58:31.714Z,19.43
2022-08-30T06:59:34.910Z,18.63
2022-08-30T07:00:38.351Z,19.38
2022-08-30T07:01:41.743Z,17.77
2022-08-30T07:02:44.954Z,19.06
2022-08-30T07:03:48.144Z,19.34
2022-08-30T07:04:51.453Z,18.29
2022-08-30T07:05:55.941Z,19.46
2022-08-30T07:06:59.456Z,18.43
2022-08-30T07:08:03.861Z,18.07
2022-08-30T07:09:06.994Z,16.86
2022-08-30T07:10:10.975Z,15.71
2022-08-30T07:11:14.190Z,14.78
2022-08-30T07:12:17.420Z,15.79
2022-08-30T07:13:21.257Z,16.33
2022-08-30T07:14:24.499Z,15.44
2022-08-30T07:15:27.626Z,14.76
2022-08-30T07:16:33.849Z,14.02
2022-08-30T07:17:55.069Z,12.99
2022-08-30T07:18:59.904Z,12.56
2022-08-30T07:20:04.938Z,12.59
2022-08-30T07:21:11.638Z,13.08
2022-08-30T07:22:14.860Z,13.11
2022-08-30T07:23:18.649Z,13.08
2022-08-30T07:24:21.845Z,12.36
2022-08-30T07:25:25.080Z,11.68
2022-08-30T07:26:35.493Z,11.35
2022-08-30T07:27:39.365Z,11.97
2022-08-30T07:28:44.695Z,10.79
2022-08-30T07:29:49.356Z,10.55
2022-08-30T07:30:53.042Z,10.51
2022-08-30T07:31:56.185Z,11.43
2022-08-30T07:32:59.451Z,10.87
2022-08-30T07:34:04.457Z,10.18
2022-08-30T07:35:08.414Z,11.98
2022-08-30T07:36:12.904Z,10.50
2022-08-30T07:37:18.059Z,10.24
2022-08-30T07:38:20.942Z,9.97
2022-08-30T07:39:23.965Z,9.98
2022-08-30T07:40:28.210Z,10.02
2022-08-30T07:41:35.175Z,9.99
2022-08-30T07:42:40.221Z,10.72
2022-08-30T07:43:43.502Z,11.14
2022-08-30T07:44:47.217Z,10.47
2022-08-30T07:45:50.364Z,11.24
2022-08-30T07:46:53.769Z,11.41
2022-08-30T07:47:57.201Z,10.00
2022-08-30T07:49:00.809Z,11.05
2022-08-30T07:50:07.536Z,11.03
2022-08-30T07:51:16.152Z,10.74
2022-08-30T07:52:19.660Z,10.84
2022-08-30T07:53:22.921Z,10.51
2022-08-30T07:54:26.225Z,10.45
2022-08-30T07:55:29.369Z,10.25
2022-08-30T07:56:32.463Z,11.04
2022-08-30T07:57:35.558Z,10.84
2022-08-30T07:58:39.163Z,9.94
2022-08-30T07:59:42.688Z,9.97
2022-08-30T08:00:45.888Z,9.91
2022-08-30T08:01:49.217Z,9.71
2022-08-30T08:02:52.509Z,10.05
2022-08-30T08:03:55.754Z,10.53
2022-08-30T08:04:59.387Z,8.61
2022-08-30T08:06:04.131Z,9.05
2022-08-30T08:07:07.204Z,9.05
2022-08-30T08:08:12.420Z,8.99
2022-08-30T08:09:15.744Z,7.70
2022-08-30T08:10:19.493Z,8.61
2022-08-30T08:11:28.352Z,8.56
2022-08-30T08:12:30.771Z,8.11
2022-08-30T08:13:36.643Z,8.03
2022-08-30T08:14:40.814Z,9.06
2022-08-30T08:15:44.176Z,7.30
2022-08-30T08:16:48.084Z,7.92
2022-08-30T08:17:51.379Z,6.34
2022-08-30T08:18:54.699Z,5.47
2022-08-30T08:19:57.936Z,5.67
2022-08-30T08:21:01.543Z,5.71
2022-08-30T08:22:19.885Z,6.30
2022-08-30T08:23:09.937Z,5.87
2022-08-30T08:24:13.262Z,5.97
2022-08-30T08:25:16.439Z,5.47
2022-08-30T08:26:20.402Z,6.68
2022-08-30T08:27:24.198Z,5.47
2022-08-30T08:28:27.299Z,5.67
2022-08-30T08:29:30.599Z,6.90
2022-08-30T08:30:36.696Z,7.16
2022-08-30T08:31:40.904Z,6.67
2022-08-30T08:32:44.270Z,7.12
2022-08-30T08:33:47.748Z,6.46
2022-08-30T08:34:50.987Z,6.69
2022-08-30T08:35:54.280Z,6.27
2022-08-30T08:36:58.282Z,5.92
2022-08-30T08:38:01.812Z,6.22
2022-08-30T08:39:07.233Z,6.83
2022-08-30T08:40:14.988Z,7.23
2022-08-30T08:41:25.058Z,6.41
2022-08-30T08:42:56.127Z,7.44
2022-08-30T08:43:59.508Z,6.81
2022-08-30T08:45:11.523Z,7.50
2022-08-30T08:46:18.216Z,6.88
2022-08-30T08:47:25.258Z,6.96
2022-08-30T08:48:59.607Z,6.69
2022-08-30T08:49:54.116Z,7.46
2022-08-30T08:51:15.717Z,7.46
2022-08-30T08:52:49.786Z,7.96
2022-08-30T08:53:59.502Z,6.89
2022-08-30T08:55:09.520Z,7.02
2022-08-30T08:56:15.977Z,7.29
2022-08-30T08:57:22.660Z,6.81
2022-08-30T08:58:30.609Z,7.43
2022-08-30T08:59:33.824Z,7.04
2022-08-30T09:00:39.001Z,7.52
2022-08-30T09:01:42.355Z,8.36
2022-08-30T09:03:00.557Z,7.74
2022-08-30T09:04:07.381Z,6.68
2022-08-30T09:05:14.196Z,7.26
2022-08-30T09:06:33.863Z,8.09
2022-08-30T09:07:40.674Z,7.98
2022-08-30T09:08:43.829Z,8.01
2022-08-30T09:09:47.357Z,7.46
2022-08-30T09:11:05.133Z,7.25
2022-08-30T09:12:10.761Z,7.83
2022-08-30T09:13:14.086Z,7.29
2022-08-30T09:14:21.300Z,6.88
2022-08-30T09:15:27.812Z,7.19
2022-08-30T09:16:54.002Z,7.43
2022-08-30T09:18:04.082Z,6.77
2022-08-30T09:19:07.486Z,7.51
2022-08-30T09:20:12.237Z,6.82
2022-08-30T09:21:18.953Z,7.08
2022-08-30T09:22:37.427Z,6.93
2022-08-30T09:23:50.233Z,7.78
2022-08-30T09:24:57.053Z,7.31
2022-08-30T09:26:06.585Z,6.57
2022-08-30T09:27:18.855Z,6.94
2022-08-30T09:28:27.141Z,7.61
2022-08-30T09:29:30.782Z,6.96
2022-08-30T09:30:34.509Z,7.37
2022-08-30T09:31:52.932Z,7.35
2022-08-30T09:32:58.667Z,7.53
2022-08-30T09:34:10.595Z,6.94
2022-08-30T09:36:30.957Z,6.73
2022-08-30T09:37:37.785Z,5.88
2022-08-30T09:38:40.912Z,6.38
2022-08-30T09:39:45.844Z,6.79
2022-08-30T09:40:52.058Z,5.72
2022-08-30T09:42:14.232Z,5.97
2022-08-30T09:43:20.916Z,5.76
2022-08-30T09:44:30.101Z,6.77
2022-08-30T09:45:39.717Z,6.64
2022-08-30T09:46:49.521Z,5.69
2022-08-30T09:48:58.261Z,5.74
2022-08-30T09:50:09.703Z,6.73
2022-08-30T09:51:16.490Z,6.37
2022-08-30T09:52:44.475Z,6.19
2022-08-30T09:54:17.480Z,6.08
2022-08-30T09:55:28.444Z,7.02
2022-08-30T09:56:39.663Z,5.98
2022-08-30T09:58:10.582Z,6.04
2022-08-30T09:59:42.885Z,6.64
2022-08-30T10:01:06.252Z,6.13
2022-08-30T10:02:28.464Z,7.00
2022-08-30T10:03:53.599Z,6.29
2022-08-30T10:05:09.327Z,6.32
2022-08-30T10:06:17.155Z,7.19
2022-08-30T10:07:29.757Z,6.49
2022-08-30T10:08:36.321Z,5.88
2022-08-30T10:09:48.834Z,7.01
2022-08-30T10:11:03.403Z,6.23
2022-08-30T10:12:27.915Z,6.38
2022-08-30T10:13:43.616Z,5.54
2022-08-30T10:14:57.697Z,6.44
2022-08-30T10:16:10.357Z,6.18
2022-08-30T10:17:51.798Z,5.67
2022-08-30T10:19:06.308Z,5.96
2022-08-30T10:20:25.363Z,6.11
2022-08-30T10:21:44.184Z,5.95
2022-08-30T10:22:57.617Z,5.66
2022-08-30T10:24:11.645Z,6.04
2022-08-30T10:25:37.016Z,5.62
2022-08-30T10:26:49.812Z,5.62
2022-08-30T10:28:03.097Z,5.59
2022-08-30T10:29:12.952Z,5.52
2022-08-30T10:30:17.540Z,5.97
2022-08-30T10:31:32.674Z,5.45
2022-08-30T10:32:48.167Z,6.22
2022-08-30T10:33:54.646Z,5.72
2022-08-30T10:35:07.509Z,5.66
2022-08-30T10:36:13.961Z,6.26
2022-08-30T10:37:26.720Z,5.74
2022-08-30T10:38:38.851Z,5.56
2022-08-30T10:39:45.581Z,5.01
2022-08-30T10:41:10.350Z,5.63
2022-08-30T10:42:20.844Z,5.93
2022-08-30T10:43:38.132Z,5.14
2022-08-30T10:44:47.703Z,5.29
2022-08-30T10:45:53.574Z,5.59
2022-08-30T10:47:18.576Z,5.64
2022-08-30T10:48:27.106Z,6.01
2022-08-30T10:49:33.813Z,5.06
2022-08-30T10:50:46.585Z,5.67
2022-08-30T10:52:00.775Z,5.37
2022-08-30T10:53:25.147Z,5.54
2022-08-30T10:54:43.985Z,5.96
2022-08-30T10:56:08.070Z,5.93
2022-08-30T10:57:11.309Z,5.24
2022-08-30T10:58:16.055Z,5.27
2022-08-30T10:59:20.502Z,6.43
2022-08-30T11:00:29.693Z,6.65
2022-08-30T11:01:53.048Z,5.91
2022-08-30T11:03:19.588Z,6.18
2022-08-30T11:05:00.713Z,5.71
2022-08-30T11:06:22.788Z,5.70
2022-08-30T11:07:54.943Z,5.53
2022-08-30T11:09:15.210Z,5.76
2022-08-30T11:10:38.529Z,5.46
2022-08-30T11:11:54.484Z,5.16
2022-08-30T11:13:01.318Z,5.39
2022-08-30T11:14:06.663Z,5.32
2022-08-30T11:15:19.146Z,5.44
2022-08-30T11:16:44.310Z,5.87
2022-08-30T11:18:00.248Z,5.23
2022-08-30T11:19:05.931Z,5.79
2022-08-30T11:20:31.092Z,4.91
2022-08-30T11:21:38.921Z,5.41
2022-08-30T11:22:43.965Z,5.81
2022-08-30T11:24:12.282Z,5.99
2022-08-30T11:25:18.579Z,5.34
2022-08-30T11:26:49.476Z,5.01
2022-08-30T11:27:56.903Z,4.91
2022-08-30T11:29:04.313Z,5.74
2022-08-30T11:30:28.284Z,4.58
2022-08-30T11:31:37.536Z,4.79
2022-08-30T11:33:02.441Z,4.91
2022-08-30T11:34:07.841Z,5.69
2022-08-30T11:35:11.231Z,5.07
2022-08-30T11:36:37.541Z,4.78
2022-08-30T11:37:44.404Z,4.53
2022-08-30T11:38:51.325Z,5.12
2022-08-30T11:39:57.992Z,4.51
2022-08-30T11:41:09.784Z,5.52
2022-08-30T11:42:32.496Z,5.84
2022-08-30T11:43:39.555Z,4.77
2022-08-30T11:44:42.699Z,5.62
2022-08-30T11:45:50.166Z,4.95
2022-08-30T11:46:58.090Z,4.94
2022-08-30T11:48:05.165Z,4.69
2022-08-30T11:49:14.599Z,5.04
2022-08-30T11:50:28.354Z,4.13
2022-08-30T11:52:08.377Z,4.57
2022-08-30T11:53:01.365Z,4.80
2022-08-30T11:54:24.784Z,4.33
2022-08-30T11:55:49.630Z,4.61
2022-08-30T11:56:56.550Z,5.32
2022-08-30T11:58:18.819Z,5.17
2022-08-30T11:59:46.588Z,4.42
2022-08-30T12:00:54.065Z,4.36
2022-08-30T12:01:57.921Z,4.21
2022-08-30T12:03:05.489Z,4.74
2022-08-30T12:04:15.612Z,4.37
2022-08-30T12:05:40.527Z,4.52
2022-08-30T12:06:49.884Z,4.84
2022-08-30T12:08:02.067Z,4.52
2022-08-30T12:09:09.370Z,5.02
2022-08-30T12:10:16.929Z,4.61
2022-08-30T12:11:23.649Z,4.83
2022-08-30T12:12:33.433Z,4.51
2022-08-30T12:13:46.250Z,4.29
2022-08-30T12:14:53.933Z,4.32
2022-08-30T12:16:00.369Z,4.49
2022-08-30T12:17:41.940Z,4.64
2022-08-30T12:18:56.671Z,4.53
2022-08-30T12:20:00.320Z,4.24
2022-08-30T12:21:23.353Z,4.31
2022-08-30T12:22:28.376Z,4.47
2022-08-30T12:23:44.914Z,4.72
2022-08-30T12:24:49.432Z,4.28
2022-08-30T12:26:13.480Z,4.99
2022-08-30T12:27:32.718Z,4.32
2022-08-30T12:28:35.901Z,4.12
2022-08-30T12:29:43.203Z,4.13
2022-08-30T12:30:46.954Z,4.72
2022-08-30T12:32:03.352Z,4.84
2022-08-30T12:33:11.540Z,4.52
2022-08-30T12:34:27.379Z,4.92
2022-08-30T12:35:31.360Z,4.47
2022-08-30T12:36:41.071Z,4.38
2022-08-30T12:37:46.096Z,4.65
2022-08-30T12:38:51.061Z,4.66
2022-08-30T12:40:09.954Z,4.45
2022-08-30T12:41:16.762Z,4.59
2022-08-30T12:42:23.461Z,4.76
2022-08-30T12:43:38.775Z,4.57
2022-08-30T12:44:37.893Z,4.67
2022-08-30T12:45:50.514Z,4.30
2022-08-30T12:46:59.707Z,4.34
2022-08-30T12:48:10.545Z,4.32
2022-08-30T12:49:17.142Z,4.73
2022-08-30T12:50:24.071Z,4.64
2022-08-30T12:52:50.702Z,4.17
2022-08-30T12:53:55.735Z,4.36
2022-08-30T12:55:17.495Z,4.57
2022-08-30T12:56:35.110Z,5.58
2022-08-30T12:57:44.489Z,4.86
2022-08-30T12:58:51.028Z,4.17
2022-08-30T12:59:59.429Z,4.41
2022-08-30T13:01:31.337Z,4.08
2022-08-30T13:02:51.544Z,3.98
2022-08-30T13:03:58.255Z,4.32
2022-08-30T13:05:06.453Z,3.94
2022-08-30T13:06:10.308Z,4.56
2022-08-30T13:07:29.434Z,4.51
2022-08-30T13:08:37.541Z,4.27
2022-08-30T13:09:43.560Z,4.24
2022-08-30T13:10:54.323Z,4.58
2022-08-30T13:11:58.886Z,3.95
2022-08-30T13:13:04.784Z,4.24
2022-08-30T13:14:31.962Z,4.30
2022-08-30T13:15:39.400Z,3.78
2022-08-30T13:16:45.296Z,4.31
2022-08-30T13:17:47.611Z,4.49
2022-08-30T13:19:27.411Z,3.41
2022-08-30T13:20:31.317Z,4.33
2022-08-30T13:21:34.941Z,4.11
2022-08-30T13:22:42.132Z,3.78
2022-08-30T13:23:45.251Z,3.96
2022-08-30T13:24:50.848Z,4.44
2022-08-30T13:25:55.765Z,4.21
2022-08-30T13:27:06.067Z,4.25
2022-08-30T13:28:11.163Z,4.27
2022-08-30T13:29:20.052Z,3.90
2022-08-30T13:31:30.359Z,4.09
2022-08-30T13:32:38.649Z,3.79
2022-08-30T13:33:40.574Z,4.41
2022-08-30T13:34:44.699Z,4.35
2022-08-30T13:35:47.788Z,4.10
2022-08-30T13:36:54.015Z,4.21
2022-08-30T13:37:59.402Z,4.19
2022-08-30T13:39:04.640Z,4.17
2022-08-30T13:40:10.366Z,4.31
2022-08-30T13:41:14.829Z,4.23
2022-08-30T13:42:33.324Z,4.33
2022-08-30T13:43:23.134Z,4.24
2022-08-30T13:44:28.055Z,3.92
2022-08-30T13:45:48.574Z,3.97
2022-08-30T13:46:42.095Z,4.53
2022-08-30T13:47:48.287Z,4.15
2022-08-30T13:48:54.995Z,3.81
2022-08-30T13:49:58.950Z,3.97
2022-08-30T13:51:02.255Z,4.58
2022-08-30T13:52:23.292Z,4.84
2022-08-30T13:53:13.278Z,4.36
2022-08-30T13:54:16.540Z,4.26
2022-08-30T13:55:19.794Z,3.99
2022-08-30T13:56:25.564Z,4.26
2022-08-30T13:58:35.620Z,4.08
2022-08-30T13:59:38.821Z,4.27
2022-08-30T14:00:45.425Z,4.41
2022-08-30T14:02:55.778Z,4.36
2022-08-30T14:04:15.671Z,4.13
2022-08-30T14:05:05.638Z,4.56
2022-08-30T14:06:31.658Z,4.47
2022-08-30T14:07:19.894Z,4.18
2022-08-30T14:08:47.911Z,3.89
2022-08-30T14:09:35.069Z,4.11
2022-08-30T14:10:46.450Z,4.09
2022-08-30T14:11:43.700Z,4.12
2022-08-30T14:12:56.192Z,4.71
2022-08-30T14:14:59.459Z,3.98
2022-08-30T14:17:19.233Z,4.42
2022-08-30T14:18:22.859Z,4.56
2022-08-30T14:19:27.046Z,5.05
2022-08-30T14:20:31.890Z,4.28
2022-08-30T14:21:36.006Z,4.35
2022-08-30T14:22:39.324Z,3.57
2022-08-30T14:23:42.521Z,4.05
2022-08-30T14:24:45.623Z,4.24
2022-08-30T14:25:48.913Z,3.99
2022-08-30T14:26:54.068Z,3.82
2022-08-30T14:27:57.233Z,4.25
2022-08-30T14:29:02.753Z,3.86
2022-08-30T14:30:07.491Z,4.05
2022-08-30T14:31:11.231Z,4.04
2022-08-30T14:32:14.412Z,4.38
2022-08-30T14:33:17.796Z,3.83
2022-08-30T14:34:22.482Z,4.26
2022-08-30T14:35:25.820Z,3.92
2022-08-30T14:36:32.033Z,4.25
2022-08-30T14:37:35.148Z,3.36
2022-08-30T14:38:38.722Z,3.89
2022-08-30T14:39:41.979Z,4.09
2022-08-30T14:40:45.219Z,3.93
2022-08-30T14:41:51.278Z,3.92
2022-08-30T14:42:54.565Z,4.11
2022-08-30T14:43:57.731Z,4.06
2022-08-30T14:45:00.923Z,4.99
2022-08-30T14:46:04.394Z,4.08
2022-08-30T14:47:07.762Z,3.67
2022-08-30T14:48:11.453Z,3.75